Time;durP1;ratioP1;P1;durP2;ratioP2;P2;SDS_P1;SDS_P2;PMS_P1;PMS_P2;Temp;Humidity;BMP_temperature;BMP_pressure;BME280_temperature;BME280_humidity;BME280_pressure;Samples;Min_cycle;Max_cycle;Signal;HPM_P1;HPM_P2
2022/11/28 00:00:40;;;;;;;8.47;4.50;;;4.00;99.90;;;;;;5053301;28;20235;-68
2022/11/28 00:03:05;;;;;;;7.07;4.00;;;4.00;99.90;;;;;;5071428;28;20190;-68
2022/11/28 00:05:31;;;;;;;9.97;5.37;;;4.10;99.90;;;;;;5062809;28;20415;-68
2022/11/28 00:07:56;;;;;;;8.03;4.17;;;4.10;99.90;;;;;;5073619;28;20268;-68
2022/11/28 00:10:22;;;;;;;9.87;4.30;;;4.10;99.90;;;;;;5083981;28;20181;-68
2022/11/28 00:12:47;;;;;;;8.30;5.00;;;4.10;99.90;;;;;;5081110;28;20272;-68
2022/11/28 00:15:13;;;;;;;10.03;4.80;;;4.20;99.90;;;;;;5076388;28;20166;-68
2022/11/28 00:17:38;;;;;;;10.97;4.43;;;4.20;99.90;;;;;;5096377;28;20209;-69
2022/11/28 00:20:05;;;;;;;11.97;4.80;;;4.10;99.90;;;;;;5087091;28;20190;-69
2022/11/28 00:22:30;;;;;;;9.33;4.70;;;4.20;99.90;;;;;;5078436;28;20174;-68
2022/11/28 00:24:56;;;;;;;10.17;4.80;;;4.20;99.90;;;;;;5071037;28;20489;-69
2022/11/28 00:27:22;;;;;;;14.33;6.70;;;4.20;99.90;;;;;;5073697;28;20629;-69
2022/11/28 00:29:47;;;;;;;11.90;4.87;;;4.20;99.90;;;;;;5071990;28;20189;-66
2022/11/28 00:32:13;;;;;;;11.60;5.27;;;4.20;99.90;;;;;;5068306;28;20220;-66
2022/11/28 00:34:38;;;;;;;10.77;4.57;;;4.20;99.90;;;;;;5064767;28;20205;-66
2022/11/28 00:37:04;;;;;;;15.30;4.60;;;4.20;99.90;;;;;;5053375;28;20193;-66
2022/11/28 00:39:29;;;;;;;8.73;4.70;;;4.20;99.90;;;;;;5062854;28;20185;-66
2022/11/28 00:41:55;;;;;;;8.63;4.43;;;4.20;99.90;;;;;;5053794;28;20241;-66
2022/11/28 00:44:21;;;;;;;9.00;3.70;;;4.20;99.90;;;;;;5054803;28;20247;-66
2022/11/28 00:46:46;;;;;;;9.40;5.10;;;4.20;99.90;;;;;;5055210;28;20217;-66
2022/11/28 00:49:12;;;;;;;15.47;4.67;;;4.10;99.90;;;;;;5074269;28;20259;-68
2022/11/28 00:51:38;;;;;;;8.10;5.13;;;4.10;99.90;;;;;;5067496;28;20192;-67
2022/11/28 00:54:05;;;;;;;12.60;5.70;;;4.10;99.90;;;;;;5060467;28;20182;-67
2022/11/28 00:56:33;;;;;;;6.90;3.60;;;4.10;99.90;;;;;;5068295;28;20182;-67
2022/11/28 00:58:59;;;;;;;8.57;4.30;;;4.10;99.90;;;;;;5054372;28;20546;-69
2022/11/28 01:01:28;;;;;;;9.17;4.23;;;4.10;99.90;;;;;;5054314;28;20553;-67
2022/11/28 01:03:56;;;;;;;9.70;4.40;;;4.10;99.90;;;;;;5054770;28;20263;-67
2022/11/28 01:06:25;;;;;;;9.20;4.03;;;4.00;99.90;;;;;;5055164;28;20431;-67
2022/11/28 01:08:51;;;;;;;9.07;4.33;;;4.00;99.90;;;;;;5055085;28;20431;-67
2022/11/28 01:11:17;;;;;;;10.80;4.70;;;4.00;99.90;;;;;;5054968;28;20515;-67
2022/11/28 01:13:43;;;;;;;8.67;3.93;;;4.00;99.90;;;;;;5066029;28;20181;-67
2022/11/28 01:16:09;;;;;;;11.73;5.03;;;4.00;99.90;;;;;;5055594;28;20934;-67
2022/11/28 01:18:36;;;;;;;8.30;4.13;;;3.90;99.90;;;;;;5054518;28;20821;-67
2022/11/28 01:21:02;;;;;;;8.40;3.67;;;3.90;99.90;;;;;;5066621;28;20806;-67
2022/11/28 01:23:27;;;;;;;9.30;4.20;;;3.90;99.90;;;;;;5074005;28;20485;-67
2022/11/28 01:25:53;;;;;;;8.23;4.00;;;3.90;99.90;;;;;;5074582;28;20421;-67
2022/11/28 01:28:18;;;;;;;11.60;5.30;;;3.90;99.90;;;;;;5073630;28;20633;-67
2022/11/28 01:30:44;;;;;;;8.93;4.00;;;3.80;99.90;;;;;;5067573;28;20194;-67
2022/11/28 01:33:10;;;;;;;7.10;3.70;;;3.80;99.90;;;;;;5053134;28;20269;-67
2022/11/28 01:35:35;;;;;;;9.60;3.43;;;3.80;99.90;;;;;;5054470;28;20228;-67
2022/11/28 01:38:01;;;;;;;8.33;4.10;;;3.80;99.90;;;;;;5066876;28;20280;-67
2022/11/28 01:40:26;;;;;;;10.33;4.30;;;3.80;99.90;;;;;;5068901;28;20189;-67
2022/11/28 01:42:52;;;;;;;9.20;3.53;;;3.80;99.90;;;;;;5054289;28;20182;-67
2022/11/28 01:45:21;;;;;;;8.73;3.93;;;3.80;99.90;;;;;;5067095;28;20680;-67
2022/11/28 01:47:50;;;;;;;8.60;4.30;;;3.80;99.90;;;;;;5054272;28;20185;-67
2022/11/28 01:50:16;;;;;;;6.70;3.30;;;3.70;99.90;;;;;;5058982;28;20442;-67
2022/11/28 01:52:46;;;;;;;12.53;4.20;;;3.70;99.90;;;;;;5060392;28;20428;-67
2022/11/28 01:55:15;;;;;;;5.67;3.40;;;3.80;99.90;;;;;;5052953;28;20416;-67
2022/11/28 01:57:42;;;;;;;4.23;2.97;;;3.80;99.90;;;;;;5054608;28;20952;-66
2022/11/28 02:00:12;;;;;;;9.43;3.13;;;3.90;99.90;;;;;;5057183;28;20425;-67
2022/11/28 02:03:02;;;;;;;5.20;3.30;;;4.00;99.90;;;;;;5058639;28;20419;-67
2022/11/28 02:05:27;;;;;;;9.37;3.77;;;4.00;99.90;;;;;;5064639;28;20423;-67
2022/11/28 02:07:53;;;;;;;8.10;3.67;;;4.00;99.90;;;;;;5069000;28;20959;-67
2022/11/28 02:10:27;;;;;;;5.90;3.13;;;4.00;99.90;;;;;;5058363;28;20224;-67
2022/11/28 02:13:02;;;;;;;7.93;3.87;;;4.00;99.90;;;;;;5063962;28;20189;-67
2022/11/28 02:15:33;;;;;;;3.90;2.90;;;4.00;99.90;;;;;;5059741;28;20424;-67
2022/11/28 02:18:34;;;;;;;4.50;3.07;;;4.00;99.90;;;;;;5073231;28;20479;-67
2022/11/28 02:21:23;;;;;;;4.60;3.07;;;4.00;99.90;;;;;;5039614;28;20427;-67
2022/11/28 02:24:07;;;;;;;7.50;3.17;;;4.00;99.90;;;;;;5069821;28;20451;-67
2022/11/28 02:27:06;;;;;;;5.20;3.30;;;4.10;99.90;;;;;;5053562;28;20419;-67
2022/11/28 02:29:56;;;;;;;8.03;3.17;;;4.10;99.90;;;;;;5052994;28;20459;-67
2022/11/28 02:32:43;;;;;;;8.83;3.87;;;4.20;99.90;;;;;;5053485;28;20416;-67
2022/11/28 02:35:46;;;;;;;5.07;3.03;;;4.20;99.90;;;;;;5068917;28;20924;-66
2022/11/28 02:38:11;;;;;;;6.27;3.07;;;4.30;99.90;;;;;;5072277;28;20931;-67
2022/11/28 02:40:54;;;;;;;5.07;2.50;;;4.30;99.90;;;;;;5053431;28;20466;-67
2022/11/28 02:43:35;;;;;;;4.87;2.70;;;4.40;99.90;;;;;;5052349;28;20614;-67
2022/11/28 02:46:20;;;;;;;7.20;3.07;;;4.50;99.90;;;;;;5053552;28;20408;-67
2022/11/28 02:48:55;;;;;;;6.63;3.77;;;4.40;99.90;;;;;;5053960;28;20431;-67
2022/11/28 02:51:36;;;;;;;6.43;3.47;;;4.40;99.90;;;;;;5064030;28;20450;-67
2022/11/28 02:54:04;;;;;;;15.53;3.83;;;4.40;99.90;;;;;;5079623;23;20488;-67
2022/11/28 02:56:29;;;;;;;6.37;3.60;;;4.40;99.90;;;;;;5014766;28;20426;-67
2022/11/28 02:58:55;;;;;;;7.47;3.20;;;4.40;99.90;;;;;;5015985;28;20474;-67
2022/11/28 03:01:35;;;;;;;2.97;2.20;;;4.40;99.90;;;;;;5023856;28;20210;-67
2022/11/28 03:04:21;;;;;;;5.67;2.90;;;4.40;99.90;;;;;;5021891;28;20178;-67
2022/11/28 03:07:20;;;;;;;7.73;2.87;;;4.50;99.90;;;;;;4997833;28;20926;-67
2022/11/28 03:09:57;;;;;;;3.47;1.90;;;4.60;99.90;;;;;;5018583;28;20425;-68
2022/11/28 03:12:52;;;;;;;5.83;2.40;;;4.60;99.90;;;;;;5013037;28;20837;-68
2022/11/28 03:15:27;;;;;;;6.10;2.57;;;4.60;99.90;;;;;;4983796;28;20430;-68
2022/11/28 03:18:19;;;;;;;4.83;2.90;;;4.70;99.90;;;;;;5012970;28;20560;-68
2022/11/28 03:20:59;;;;;;;7.80;3.70;;;4.70;99.90;;;;;;5019730;28;20510;-68
2022/11/28 03:23:45;;;;;;;4.30;2.50;;;4.60;99.90;;;;;;5012660;28;21163;-68
2022/11/28 03:26:10;;;;;;;5.80;2.73;;;4.60;99.90;;;;;;5015108;28;20433;-68
2022/11/28 03:28:39;;;;;;;5.50;2.90;;;4.50;99.90;;;;;;5011204;28;20475;-68
2022/11/28 03:31:29;;;;;;;7.30;3.13;;;4.50;99.90;;;;;;5012120;28;20672;-68
2022/11/28 03:33:58;;;;;;;5.33;3.30;;;4.50;99.90;;;;;;4993770;28;20445;-68
2022/11/28 03:36:56;;;;;;;7.43;2.70;;;4.50;99.90;;;;;;5012390;28;21296;-68
2022/11/28 03:39:28;;;;;;;6.97;3.37;;;4.50;99.90;;;;;;5012635;28;20887;-68
2022/11/28 03:42:09;;;;;;;6.70;2.93;;;4.50;99.90;;;;;;5012142;28;20484;-68
2022/11/28 03:44:43;;;;;;;7.67;2.97;;;4.50;99.90;;;;;;5011122;28;20421;-68
2022/11/28 03:47:09;;;;;;;7.17;3.80;;;4.40;99.90;;;;;;4999455;28;20463;-68
2022/11/28 03:49:46;;;;;;;5.40;3.47;;;4.40;99.90;;;;;;5011962;28;20406;-68
2022/11/28 03:52:20;;;;;;;5.73;3.57;;;4.40;99.90;;;;;;5021479;28;20178;-68
2022/11/28 03:54:55;;;;;;;4.80;2.90;;;4.30;99.90;;;;;;5006427;28;20438;-68
2022/11/28 03:57:34;;;;;;;6.30;2.90;;;4.30;99.90;;;;;;5012279;28;20468;-68
2022/11/28 04:00:09;;;;;;;9.57;3.37;;;4.30;99.90;;;;;;5011269;28;20421;-68
2022/11/28 04:02:44;;;;;;;6.20;3.03;;;4.30;99.90;;;;;;5012075;28;20421;-68
2022/11/28 04:05:31;;;;;;;10.87;4.20;;;4.20;99.90;;;;;;5000338;28;20409;-68
2022/11/28 04:08:15;;;;;;;5.40;3.10;;;4.30;99.90;;;;;;5011969;28;20796;-68
2022/11/28 04:10:54;;;;;;;10.53;2.50;;;4.30;99.90;;;;;;5012150;28;20417;-68
2022/11/28 04:13:20;;;;;;;7.63;3.70;;;4.30;99.90;;;;;;5010400;28;20433;-68
2022/11/28 04:15:51;;;;;;;3.83;2.70;;;4.30;99.90;;;;;;5011535;28;20424;-68
2022/11/28 04:18:20;;;;;;;5.70;2.90;;;4.40;99.90;;;;;;5014752;28;20203;-68
2022/11/28 04:21:05;;;;;;;5.80;3.67;;;4.40;99.90;;;;;;5024387;28;20413;-68
2022/11/28 04:23:33;;;;;;;6.73;3.50;;;4.40;99.90;;;;;;5016535;28;20410;-68
2022/11/28 04:26:06;;;;;;;6.53;2.93;;;4.40;99.90;;;;;;5021968;28;20410;-68
2022/11/28 04:28:33;;;;;;;6.10;3.00;;;4.40;99.90;;;;;;5015078;28;20421;-68
2022/11/28 04:31:02;;;;;;;7.33;3.50;;;4.30;99.90;;;;;;5015396;28;20429;-68
2022/11/28 04:33:33;;;;;;;4.10;2.23;;;4.30;99.90;;;;;;4996227;28;20418;-68
2022/11/28 04:36:01;;;;;;;3.80;2.40;;;4.40;99.90;;;;;;4998038;28;20436;-68
2022/11/28 04:38:28;;;;;;;6.87;3.20;;;4.40;99.90;;;;;;5015218;28;21034;-68
2022/11/28 04:41:04;;;;;;;5.27;2.60;;;4.40;99.90;;;;;;5015623;28;20460;-68
2022/11/28 04:43:40;;;;;;;4.93;2.50;;;4.40;99.90;;;;;;5024674;28;20404;-68
2022/11/28 04:46:31;;;;;;;5.97;2.70;;;4.50;99.90;;;;;;5018026;28;20414;-68
2022/11/28 04:48:57;;;;;;;4.97;3.43;;;4.60;99.90;;;;;;5015673;28;20414;-68
2022/11/28 04:51:26;;;;;;;3.50;2.00;;;4.70;99.90;;;;;;5014351;28;20531;-68
2022/11/28 04:53:51;;;;;;;13.20;3.10;;;4.70;99.90;;;;;;5028026;28;20483;-68
2022/11/28 04:56:22;;;;;;;7.80;3.07;;;4.80;99.90;;;;;;5014610;28;20457;-68
2022/11/28 04:58:49;;;;;;;3.63;2.03;;;4.90;99.90;;;;;;5014619;28;20562;-68
2022/11/28 05:01:24;;;;;;;4.20;2.43;;;4.90;99.90;;;;;;5014819;28;20895;-68
2022/11/28 05:03:50;;;;;;;7.23;1.90;;;4.90;99.90;;;;;;5014133;28;20487;-68
2022/11/28 05:06:31;;;;;;;4.50;2.90;;;4.90;99.90;;;;;;5015206;28;20513;-68
2022/11/28 05:08:56;;;;;;;2.90;2.03;;;4.90;99.90;;;;;;5002070;28;20437;-68
2022/11/28 05:11:22;;;;;;;4.77;2.60;;;4.90;99.90;;;;;;5007251;28;20434;-68
2022/11/28 05:13:48;;;;;;;4.83;2.67;;;4.80;99.90;;;;;;5007411;28;20193;-68
2022/11/28 05:16:14;;;;;;;6.83;3.00;;;4.80;99.90;;;;;;5014503;28;20574;-68
2022/11/28 05:18:40;;;;;;;5.57;3.10;;;4.80;99.90;;;;;;5001894;28;20590;-68
2022/11/28 05:21:09;;;;;;;6.77;2.40;;;4.70;99.90;;;;;;5007026;28;20422;-68
2022/11/28 05:23:39;;;;;;;4.40;2.50;;;4.70;99.90;;;;;;5007264;28;20206;-68
2022/11/28 05:26:10;;;;;;;6.83;2.90;;;4.70;99.90;;;;;;5012004;28;20426;-68
2022/11/28 05:28:36;;;;;;;5.03;1.83;;;4.70;99.90;;;;;;5012684;28;20492;-69
2022/11/28 05:31:02;;;;;;;2.87;1.97;;;4.70;99.90;;;;;;4995652;28;21072;-68
2022/11/28 05:33:29;;;;;;;5.80;2.30;;;4.70;99.90;;;;;;5009458;28;20227;-68
2022/11/28 05:35:55;;;;;;;8.50;3.17;;;4.70;99.90;;;;;;4995214;28;20908;-68
2022/11/28 05:38:21;;;;;;;8.30;2.40;;;4.70;99.90;;;;;;5009628;28;20828;-68
2022/11/28 05:40:47;;;;;;;6.57;2.97;;;4.70;99.90;;;;;;5006418;28;20423;-68
2022/11/28 05:43:12;;;;;;;5.93;2.40;;;4.70;99.90;;;;;;5008579;28;20207;-68
2022/11/28 05:45:42;;;;;;;6.50;2.90;;;4.70;99.90;;;;;;5006350;28;20271;-68
2022/11/28 05:48:07;;;;;;;7.53;3.13;;;4.80;99.90;;;;;;5009699;28;20187;-68
2022/11/28 05:50:33;;;;;;;4.60;2.80;;;4.80;99.90;;;;;;5005940;28;20445;-68
2022/11/28 05:52:59;;;;;;;9.50;3.20;;;4.80;99.90;;;;;;5008331;28;20265;-68
2022/11/28 05:55:24;;;;;;;6.20;2.90;;;4.90;99.90;;;;;;5013992;28;20207;-68
2022/11/28 05:57:50;;;;;;;4.80;2.80;;;4.90;99.90;;;;;;5000824;28;20214;-68
2022/11/28 06:00:16;;;;;;;7.50;2.60;;;4.80;99.90;;;;;;5013740;28;20186;-68
2022/11/28 06:02:41;;;;;;;5.30;2.43;;;4.70;99.90;;;;;;5001920;28;20192;-68
2022/11/28 06:05:07;;;;;;;4.90;2.43;;;4.60;99.90;;;;;;5006345;28;20419;-68
2022/11/28 06:07:33;;;;;;;7.83;2.80;;;4.60;99.90;;;;;;5008949;28;20183;-68
2022/11/28 06:09:58;;;;;;;3.63;1.90;;;4.60;99.90;;;;;;4996058;28;20184;-68
2022/11/28 06:12:24;;;;;;;8.10;3.37;;;4.60;99.90;;;;;;4996650;28;20195;-68
2022/11/28 06:14:49;;;;;;;5.17;2.60;;;4.60;99.90;;;;;;5006323;28;20183;-68
2022/11/28 06:17:15;;;;;;;5.00;3.00;;;4.50;99.90;;;;;;4999480;28;20257;-68
2022/11/28 06:19:41;;;;;;;6.87;3.30;;;4.50;99.90;;;;;;5014941;28;20179;-68
2022/11/28 06:22:06;;;;;;;5.47;2.60;;;4.40;99.90;;;;;;5006172;28;20187;-68
2022/11/28 06:24:32;;;;;;;5.67;2.93;;;4.40;99.90;;;;;;5018355;28;20476;-67
2022/11/28 06:26:57;;;;;;;6.27;2.53;;;4.40;99.90;;;;;;5026493;28;20195;-68
2022/11/28 06:29:23;;;;;;;5.70;3.03;;;4.40;99.90;;;;;;5016510;28;20164;-68
2022/11/28 06:31:48;;;;;;;6.20;3.13;;;4.40;99.90;;;;;;5021320;28;20176;-68
2022/11/28 06:34:14;;;;;;;5.40;3.13;;;4.40;99.90;;;;;;5039076;28;20171;-68
2022/11/28 06:36:40;;;;;;;5.43;2.40;;;4.30;99.90;;;;;;5036707;28;20171;-68
2022/11/28 06:39:05;;;;;;;8.13;3.10;;;4.30;99.90;;;;;;5006182;28;20221;-68
2022/11/28 06:41:31;;;;;;;4.67;2.63;;;4.30;99.90;;;;;;5012714;28;20250;-68
2022/11/28 06:43:57;;;;;;;4.10;2.80;;;4.20;99.90;;;;;;4994257;28;20190;-68
2022/11/28 06:46:23;;;;;;;9.00;3.37;;;4.30;99.90;;;;;;4993567;28;20187;-67
2022/11/28 06:48:50;;;;;;;5.67;2.47;;;4.30;99.90;;;;;;4993588;28;20683;-68
2022/11/28 06:51:16;;;;;;;7.47;2.20;;;4.40;99.90;;;;;;4993421;28;20223;-67
2022/11/28 06:53:43;;;;;;;3.80;2.20;;;4.40;99.90;;;;;;5004874;28;20464;-67
2022/11/28 06:56:12;;;;;;;10.17;2.90;;;4.50;99.90;;;;;;5000318;28;20437;-68
2022/11/28 06:58:38;;;;;;;5.90;2.60;;;4.60;99.90;;;;;;4991277;28;20471;-68
2022/11/28 07:01:19;;;;;;;6.83;2.70;;;4.70;99.90;;;;;;4994515;28;20920;-68
2022/11/28 07:03:44;;;;;;;9.10;2.63;;;4.70;99.90;;;;;;4984732;28;20426;-67
2022/11/28 07:06:11;;;;;;;7.10;3.40;;;4.80;99.90;;;;;;5010116;28;20473;-67
2022/11/28 07:08:37;;;;;;;4.17;2.00;;;4.80;99.90;;;;;;5001674;28;20235;-67
2022/11/28 07:11:08;;;;;;;6.07;2.77;;;4.90;99.90;;;;;;4993654;28;20821;-68
2022/11/28 07:13:34;;;;;;;4.00;2.20;;;4.90;99.90;;;;;;5003819;28;20187;-67
2022/11/28 07:16:00;;;;;;;8.73;3.03;;;5.00;99.90;;;;;;5012490;28;20444;-68
2022/11/28 07:18:25;;;;;;;16.27;2.83;;;4.90;99.90;;;;;;5012665;28;20277;-67
2022/11/28 07:20:51;;;;;;;5.17;3.00;;;5.00;99.90;;;;;;5006233;28;20690;-67
2022/11/28 07:23:16;;;;;;;4.60;2.37;;;5.00;99.90;;;;;;5001195;28;20187;-68
2022/11/28 07:25:42;;;;;;;3.43;1.90;;;5.10;99.90;;;;;;5006163;28;20199;-68
2022/11/28 07:28:07;;;;;;;7.73;2.93;;;5.00;99.90;;;;;;4992294;28;20636;-68
2022/11/28 07:30:33;;;;;;;3.03;1.80;;;5.00;99.90;;;;;;5009984;28;20198;-68
2022/11/28 07:32:59;;;;;;;4.57;2.30;;;5.00;99.90;;;;;;5000186;28;20602;-67
2022/11/28 07:35:24;;;;;;;15.33;2.60;;;5.00;99.90;;;;;;5005984;28;20548;-68
2022/11/28 07:37:50;;;;;;;6.07;2.27;;;5.00;99.90;;;;;;5004096;28;20214;-67
2022/11/28 07:40:18;;;;;;;4.50;2.60;;;5.00;99.90;;;;;;5012224;28;20220;-67
2022/11/28 07:42:44;;;;;;;6.27;2.47;;;5.00;99.90;;;;;;5012020;28;20179;-67
2022/11/28 07:45:10;;;;;;;7.37;3.90;;;5.00;99.90;;;;;;5006817;28;20469;-68
2022/11/28 07:47:37;;;;;;;6.47;3.53;;;5.00;99.90;;;;;;4988657;28;20939;-67
2022/11/28 07:50:03;;;;;;;12.00;3.00;;;5.00;99.90;;;;;;5010404;28;20813;-68
2022/11/28 07:52:28;;;;;;;9.70;4.33;;;5.00;99.90;;;;;;5005685;28;20423;-68
2022/11/28 07:54:54;;;;;;;5.77;3.10;;;4.90;99.90;;;;;;4998751;28;20524;-67
2022/11/28 07:57:19;;;;;;;4.13;2.03;;;4.90;99.90;;;;;;5007010;28;20192;-67
2022/11/28 07:59:45;;;;;;;4.20;2.00;;;5.00;99.90;;;;;;4992730;28;20191;-67
2022/11/28 08:02:11;;;;;;;3.67;2.13;;;5.00;99.90;;;;;;4998479;28;20184;-68
2022/11/28 08:04:37;;;;;;;6.70;2.63;;;5.00;99.90;;;;;;5010069;28;20190;-67
2022/11/28 08:07:03;;;;;;;6.80;2.53;;;5.00;99.90;;;;;;4998743;28;20448;-68
2022/11/28 08:09:30;;;;;;;7.10;3.33;;;4.90;99.90;;;;;;5000666;28;20222;-68
2022/11/28 08:11:56;;;;;;;9.43;3.90;;;4.90;99.90;;;;;;4996228;28;20273;-68
2022/11/28 08:14:22;;;;;;;6.50;3.40;;;5.00;99.90;;;;;;5010828;28;20517;-68
2022/11/28 08:16:48;;;;;;;16.90;4.30;;;5.00;99.90;;;;;;4998388;28;20636;-68
2022/11/28 08:19:14;;;;;;;7.73;4.13;;;5.00;99.90;;;;;;5011899;28;20210;-68
2022/11/28 08:21:39;;;;;;;6.97;4.17;;;5.10;99.90;;;;;;5009896;28;20434;-68
2022/11/28 08:24:06;;;;;;;6.27;3.03;;;5.20;99.90;;;;;;5000695;28;20270;-67
2022/11/28 08:26:32;;;;;;;6.63;3.27;;;5.20;99.90;;;;;;4996623;28;20183;-68
2022/11/28 08:29:00;;;;;;;11.07;2.67;;;5.20;99.90;;;;;;5005382;28;20489;-68
2022/11/28 08:31:31;;;;;;;13.43;3.90;;;5.30;99.90;;;;;;4991711;28;20435;-68
2022/11/28 08:33:58;;;;;;;10.40;3.13;;;5.30;99.90;;;;;;5002471;28;20422;-68
2022/11/28 08:36:24;;;;;;;7.30;3.33;;;5.30;99.90;;;;;;5011589;28;20517;-68
2022/11/28 08:38:50;;;;;;;8.00;4.40;;;5.30;99.90;;;;;;4999471;28;20537;-68
2022/11/28 08:41:19;;;;;;;6.60;3.80;;;5.40;99.90;;;;;;4997077;28;20506;-68
2022/11/28 08:43:46;;;;;;;12.40;4.27;;;5.50;99.90;;;;;;4998332;28;20234;-68
2022/11/28 08:46:14;;;;;;;6.17;2.90;;;5.50;99.90;;;;;;4997696;28;20456;-68
2022/11/28 08:48:40;;;;;;;4.30;2.13;;;5.50;99.90;;;;;;4999777;28;20918;-68
2022/11/28 08:51:08;;;;;;;6.40;2.13;;;5.60;99.90;;;;;;4994444;28;20530;-68
2022/11/28 08:53:33;;;;;;;7.13;2.97;;;5.70;99.90;;;;;;4997835;28;20423;-68
2022/11/28 08:55:59;;;;;;;3.70;1.87;;;5.70;99.90;;;;;;5004891;28;20439;-68
2022/11/28 08:58:25;;;;;;;7.87;2.40;;;5.80;99.90;;;;;;4991291;28;20223;-68
2022/11/28 09:00:51;;;;;;;9.23;2.43;;;5.80;99.90;;;;;;4993810;28;20187;-68
2022/11/28 09:03:18;;;;;;;3.80;2.00;;;5.70;99.90;;;;;;4999519;28;20184;-68
2022/11/28 09:05:45;;;;;;;4.00;2.47;;;5.70;99.90;;;;;;5013189;28;20692;-67
2022/11/28 09:08:16;;;;;;;8.10;3.03;;;5.70;99.90;;;;;;5003902;28;20437;-68
2022/11/28 09:10:43;;;;;;;8.63;3.23;;;5.70;99.90;;;;;;5005514;28;20426;-67
2022/11/28 09:13:09;;;;;;;10.87;3.00;;;5.80;99.90;;;;;;5000759;28;20505;-68
2022/11/28 09:15:42;;;;;;;12.80;3.13;;;5.80;99.90;;;;;;5012875;28;20775;-68
2022/11/28 09:18:08;;;;;;;4.93;2.67;;;5.90;99.90;;;;;;5003850;28;20850;-68
2022/11/28 09:20:34;;;;;;;7.53;2.47;;;5.90;99.90;;;;;;4990810;28;20423;-68
2022/11/28 09:23:00;;;;;;;9.73;2.90;;;5.90;99.90;;;;;;5005707;28;20238;-68
2022/11/28 09:25:25;;;;;;;6.30;2.90;;;5.90;99.90;;;;;;4993919;28;20427;-68
2022/11/28 09:27:51;;;;;;;3.97;2.40;;;6.00;99.90;;;;;;4994653;28;20846;-68
2022/11/28 09:30:17;;;;;;;7.30;2.93;;;6.00;99.90;;;;;;4990525;28;20263;-68
2022/11/28 09:32:46;;;;;;;6.33;2.47;;;6.10;99.90;;;;;;4994094;28;20187;-69
2022/11/28 09:35:12;;;;;;;5.03;2.70;;;6.10;99.90;;;;;;5008430;28;20237;-68
2022/11/28 09:37:37;;;;;;;5.53;2.87;;;6.20;99.90;;;;;;5002102;28;20950;-68
2022/11/28 09:40:03;;;;;;;3.70;2.17;;;6.20;99.90;;;;;;5008533;28;20267;-66
2022/11/28 09:42:42;;;;;;;6.07;2.70;;;6.20;99.90;;;;;;5014254;28;20234;-68
2022/11/28 09:45:18;;;;;;;5.57;2.87;;;6.30;99.90;;;;;;5011071;28;20479;-67
2022/11/28 09:47:51;;;;;;;6.30;2.70;;;6.30;99.90;;;;;;5004671;28;20479;-67
2022/11/28 09:50:33;;;;;;;7.93;2.80;;;6.30;99.90;;;;;;5010458;28;20469;-68
2022/11/28 09:53:27;;;;;;;10.33;3.27;;;6.30;99.90;;;;;;4994348;28;20462;-67
2022/11/28 09:56:01;;;;;;;6.53;2.80;;;6.40;99.90;;;;;;4995654;28;20450;-67
2022/11/28 09:58:34;;;;;;;13.13;2.60;;;6.60;99.90;;;;;;5013389;28;20472;-67
2022/11/28 10:01:18;;;;;;;8.90;4.70;;;6.50;99.90;;;;;;5008851;28;20768;-67
2022/11/28 10:03:47;;;;;;;17.03;5.50;;;6.70;99.90;;;;;;5002482;28;20406;-68
2022/11/28 10:06:34;;;;;;;8.30;4.03;;;6.70;99.90;;;;;;4995331;28;20431;-68
2022/11/28 10:09:20;;;;;;;8.03;3.50;;;6.60;99.90;;;;;;4994181;28;20919;-68
2022/11/28 10:11:54;;;;;;;6.60;3.37;;;6.60;99.90;;;;;;4991097;28;21072;-68
2022/11/28 10:14:32;;;;;;;9.10;4.30;;;6.60;99.90;;;;;;4995995;28;20434;-68
2022/11/28 10:17:13;;;;;;;5.07;2.80;;;6.60;99.90;;;;;;5004893;28;20449;-68
2022/11/28 10:19:48;;;;;;;5.37;3.00;;;6.70;99.90;;;;;;4987703;28;20426;-68
2022/11/28 10:22:18;;;;;;;8.07;3.33;;;6.80;99.90;;;;;;5013200;28;20505;-67
2022/11/28 10:24:51;;;;;;;4.07;2.80;;;6.80;99.90;;;;;;5005285;28;20415;-67
2022/11/28 10:27:16;;;;;;;13.13;4.33;;;6.90;99.90;;;;;;5007236;28;20414;-67
2022/11/28 10:29:50;;;;;;;7.33;3.70;;;6.90;99.90;;;;;;5003448;28;20410;-67
2022/11/28 10:32:19;;;;;;;5.07;2.87;;;7.00;99.90;;;;;;5011037;28;20519;-67
2022/11/28 10:35:12;;;;;;;5.07;2.27;;;7.10;99.90;;;;;;5012406;28;20454;-67
2022/11/28 10:37:38;;;;;;;6.60;2.67;;;7.10;99.90;;;;;;5013004;28;20457;-67
2022/11/28 10:40:13;;;;;;;8.67;2.40;;;7.20;99.90;;;;;;4999854;28;20461;-68
2022/11/28 10:43:11;;;;;;;8.70;3.10;;;7.10;99.90;;;;;;5012907;28;20175;-67
2022/11/28 10:45:47;;;;;;;6.00;3.00;;;7.20;99.90;;;;;;4975539;28;20526;-68
2022/11/28 10:48:36;;;;;;;6.43;3.00;;;7.20;99.90;;;;;;5007816;28;20833;-67
2022/11/28 10:51:23;;;;;;;6.53;2.73;;;7.20;99.90;;;;;;5002205;28;20493;-68
2022/11/28 10:53:59;;;;;;;7.73;3.00;;;7.20;99.90;;;;;;4987512;28;20414;-68
2022/11/28 10:56:54;;;;;;;8.73;3.47;;;7.20;99.90;;;;;;5012685;28;20441;-67
2022/11/28 10:59:29;;;;;;;8.70;4.00;;;7.30;99.90;;;;;;5006133;28;20473;-67
2022/11/28 11:01:56;;;;;;;6.03;2.30;;;7.30;99.90;;;;;;4999531;28;20444;-70
2022/11/28 11:04:25;;;;;;;5.97;3.37;;;7.30;99.90;;;;;;5006876;28;20414;-68
2022/11/28 11:07:14;;;;;;;6.70;2.23;;;7.30;99.90;;;;;;5004929;28;20423;-69
2022/11/28 11:09:42;;;;;;;3.20;1.57;;;7.30;99.90;;;;;;5006341;28;20458;-69
2022/11/28 11:12:18;;;;;;;4.23;2.27;;;7.40;99.90;;;;;;4999135;28;20447;-69
2022/11/28 11:14:45;;;;;;;5.13;2.00;;;7.40;99.90;;;;;;4986128;28;20410;-68
2022/11/28 11:17:25;;;;;;;5.53;2.60;;;7.40;99.90;;;;;;4984357;28;20415;-68
2022/11/28 11:19:51;;;;;;;5.90;2.77;;;7.40;99.90;;;;;;4990991;28;20504;-68
2022/11/28 11:22:27;;;;;;;7.47;2.27;;;7.50;99.90;;;;;;4987807;28;20502;-68
2022/11/28 11:25:11;;;;;;;3.47;1.57;;;7.50;99.90;;;;;;4986499;28;20180;-69
2022/11/28 11:27:45;;;;;;;5.00;2.43;;;7.50;99.90;;;;;;4996898;28;20418;-68
2022/11/28 11:30:29;;;;;;;5.40;2.10;;;7.50;99.90;;;;;;5003575;28;20414;-68
2022/11/28 11:32:57;;;;;;;3.50;1.97;;;7.60;99.90;;;;;;5010620;28;20822;-69
2022/11/28 11:35:26;;;;;;;4.90;1.93;;;7.60;99.90;;;;;;5012316;28;20414;-69
2022/11/28 11:37:51;;;;;;;3.53;1.70;;;7.60;99.90;;;;;;5002761;28;20494;-69
2022/11/28 11:40:25;;;;;;;3.47;1.70;;;7.50;99.90;;;;;;5008345;28;20509;-69
2022/11/28 11:42:52;;;;;;;3.37;2.37;;;7.60;99.90;;;;;;5011671;28;20547;-69
2022/11/28 11:45:28;;;;;;;3.53;1.83;;;7.60;99.90;;;;;;4997783;28;20432;-69
2022/11/28 11:47:54;;;;;;;9.07;3.67;;;7.60;99.90;;;;;;5000422;28;20431;-69
2022/11/28 11:50:22;;;;;;;8.97;2.73;;;7.50;99.90;;;;;;4992526;28;20430;-69
2022/11/28 11:53:02;;;;;;;6.00;1.80;;;7.50;99.90;;;;;;5003802;28;20429;-69
2022/11/28 11:55:31;;;;;;;4.70;2.40;;;7.50;99.90;;;;;;5005039;28;20472;-69
2022/11/28 11:57:59;;;;;;;3.63;1.53;;;7.50;99.90;;;;;;5006119;28;20469;-69
2022/11/28 12:00:33;;;;;;;5.40;2.10;;;7.50;99.90;;;;;;5003442;28;20446;-71
2022/11/28 12:03:16;;;;;;;7.67;2.60;;;7.50;99.90;;;;;;5000021;28;20758;-69
2022/11/28 12:05:56;;;;;;;3.77;2.23;;;7.50;99.90;;;;;;5000655;28;20792;-70
2022/11/28 12:08:49;;;;;;;4.00;1.43;;;7.50;99.90;;;;;;5006344;28;20782;-69
2022/11/28 12:11:30;;;;;;;3.23;1.70;;;7.50;99.90;;;;;;5011017;28;20454;-70
2022/11/28 12:14:02;;;;;;;7.20;2.30;;;7.50;99.90;;;;;;4999317;28;20507;-69
2022/11/28 12:16:52;;;;;;;8.80;2.40;;;7.60;99.90;;;;;;4979656;28;20859;-69
2022/11/28 12:19:35;;;;;;;5.30;2.23;;;7.60;99.90;;;;;;5005464;28;20477;-69
2022/11/28 12:22:07;;;;;;;5.57;1.80;;;7.60;99.90;;;;;;4984814;28;20431;-69
2022/11/28 12:25:09;;;;;;;5.60;1.70;;;7.60;99.90;;;;;;4979394;28;20497;-68
2022/11/28 12:27:59;;;;;;;3.87;2.13;;;7.60;99.90;;;;;;5005350;28;20429;-68
2022/11/28 12:30:39;;;;;;;4.20;2.37;;;7.60;99.90;;;;;;5011483;28;20418;-68
2022/11/28 12:33:43;;;;;;;6.03;1.80;;;7.60;99.90;;;;;;5010869;28;20476;-70
2022/11/28 12:36:17;;;;;;;4.87;2.10;;;7.50;99.90;;;;;;4923748;29;20450;-69
2022/11/28 12:39:02;;;;;;;4.47;1.47;;;7.50;99.90;;;;;;4996738;28;20949;-69
2022/11/28 12:41:56;;;;;;;4.90;2.23;;;7.50;99.90;;;;;;5007942;28;20449;-69
2022/11/28 12:44:33;;;;;;;12.80;3.40;;;7.50;99.90;;;;;;4997762;28;21156;-69
2022/11/28 12:47:21;;;;;;;5.20;2.10;;;7.50;99.90;;;;;;5010925;28;20422;-69
2022/11/28 12:50:14;;;;;;;4.63;2.30;;;7.50;99.90;;;;;;4995941;28;20411;-69
2022/11/28 12:52:52;;;;;;;9.03;1.87;;;7.50;99.90;;;;;;4995500;28;20474;-69
2022/11/28 12:55:50;;;;;;;3.87;1.43;;;7.50;99.90;;;;;;5008872;28;20439;-68
2022/11/28 12:58:23;;;;;;;3.80;2.00;;;7.50;99.90;;;;;;4999880;28;20501;-69
2022/11/28 13:01:12;;;;;;;7.90;2.70;;;7.60;99.90;;;;;;5007705;28;20421;-70
2022/11/28 13:04:06;;;;;;;7.33;2.60;;;7.60;99.90;;;;;;5002721;28;20429;-70
2022/11/28 13:06:45;;;;;;;5.00;2.10;;;7.60;99.90;;;;;;4983917;28;20429;-70
2022/11/28 13:09:47;;;;;;;6.63;1.57;;;7.60;99.90;;;;;;5003268;28;20968;-68
2022/11/28 13:12:28;;;;;;;3.47;1.90;;;7.70;99.90;;;;;;5008803;28;20437;-70
2022/11/28 13:15:11;;;;;;;4.13;1.67;;;7.70;99.90;;;;;;4994778;28;20413;-69
2022/11/28 13:17:40;;;;;;;5.90;1.63;;;7.70;99.90;;;;;;5018645;28;20461;-68
2022/11/28 13:20:11;;;;;;;3.30;1.63;;;7.70;99.90;;;;;;5014002;28;20817;-69